Time;durP1;ratioP1;P1;durP2;ratioP2;P2;SDS_P1;SDS_P2;PMS_P1;PMS_P2;Temp;Humidity;BMP_temperature;BMP_pressure;BME280_temperature;BME280_humidity;BME280_pressure;Samples;Min_cycle;Max_cycle;Signal;HPM_P1;HPM_P2
2023/09/26 00:01:36;;;;;;;8.80;6.13;;;11.70;99.90;;;;;;5046255;28;20676;-72
2023/09/26 00:04:03;;;;;;;7.00;5.93;;;11.70;99.90;;;;;;5044647;28;20452;-72
2023/09/26 00:06:30;;;;;;;6.30;5.70;;;11.60;99.90;;;;;;5045601;28;20507;-72
2023/09/26 00:08:58;;;;;;;7.47;5.90;;;11.70;99.90;;;;;;5043897;28;20488;-72
2023/09/26 00:11:27;;;;;;;7.50;6.03;;;11.60;99.90;;;;;;5044677;28;20468;-72
2023/09/26 00:13:54;;;;;;;7.97;6.07;;;11.60;99.90;;;;;;5041400;28;20467;-72
2023/09/26 00:16:21;;;;;;;7.57;6.50;;;11.50;99.90;;;;;;5044597;28;20460;-72
2023/09/26 00:18:48;;;;;;;6.80;5.70;;;11.40;99.90;;;;;;5046152;28;20502;-71
2023/09/26 00:21:14;;;;;;;9.73;6.70;;;11.40;99.90;;;;;;5042325;28;20457;-71
2023/09/26 00:23:41;;;;;;;7.90;6.00;;;11.40;99.90;;;;;;5043575;28;21166;-71
2023/09/26 00:26:08;;;;;;;8.93;6.73;;;11.40;99.90;;;;;;5041617;28;20450;-71
2023/09/26 00:28:36;;;;;;;9.67;6.63;;;11.40;99.90;;;;;;5045698;28;20525;-72
2023/09/26 00:31:04;;;;;;;7.43;6.17;;;11.40;99.90;;;;;;5043032;28;20444;-71
2023/09/26 00:33:32;;;;;;;7.77;6.90;;;11.40;99.90;;;;;;5037669;28;20476;-71
2023/09/26 00:36:05;;;;;;;7.10;6.40;;;11.40;99.90;;;;;;5042434;28;20894;-71
2023/09/26 00:38:32;;;;;;;9.37;7.23;;;11.40;99.90;;;;;;5044671;28;20448;-71
2023/09/26 00:40:59;;;;;;;8.67;6.93;;;11.40;99.90;;;;;;5042736;28;20966;-71
2023/09/26 00:43:26;;;;;;;14.30;7.50;;;11.40;99.90;;;;;;5040113;28;20473;-71
2023/09/26 00:45:56;;;;;;;8.80;7.10;;;11.40;99.90;;;;;;5044303;28;20490;-71
2023/09/26 00:48:24;;;;;;;8.90;6.67;;;11.40;99.90;;;;;;5042108;28;20495;-71
2023/09/26 00:50:52;;;;;;;8.40;7.10;;;11.40;99.90;;;;;;5040373;28;20484;-71
2023/09/26 00:53:19;;;;;;;12.67;7.63;;;11.40;99.90;;;;;;5042000;28;20892;-71
2023/09/26 00:55:46;;;;;;;9.80;7.43;;;11.30;99.90;;;;;;5039656;28;20800;-71
2023/09/26 00:58:16;;;;;;;10.37;7.80;;;11.30;99.90;;;;;;5041479;28;20484;-71
2023/09/26 01:00:45;;;;;;;10.17;8.00;;;11.30;99.90;;;;;;5044729;28;20448;-71
2023/09/26 01:03:13;;;;;;;11.30;7.40;;;11.30;99.90;;;;;;5036734;28;20890;-71
2023/09/26 01:05:39;;;;;;;14.57;7.70;;;11.20;99.90;;;;;;5044016;28;20453;-71
2023/09/26 01:08:07;;;;;;;10.47;7.67;;;11.20;99.90;;;;;;5036315;28;20469;-71
2023/09/26 01:10:34;;;;;;;10.20;7.77;;;11.20;99.90;;;;;;5043166;28;20487;-71
2023/09/26 01:13:01;;;;;;;10.50;7.00;;;11.20;99.90;;;;;;5036905;28;20485;-72
2023/09/26 01:15:32;;;;;;;9.17;8.13;;;11.20;99.90;;;;;;5037212;28;20828;-71
2023/09/26 01:17:59;;;;;;;13.53;7.60;;;11.10;99.90;;;;;;5040947;28;20969;-71
2023/09/26 01:20:28;;;;;;;9.00;6.90;;;11.10;99.90;;;;;;5040011;28;20446;-71
2023/09/26 01:22:56;;;;;;;9.87;7.20;;;11.10;99.90;;;;;;5042054;28;20475;-71
2023/09/26 01:25:24;;;;;;;7.63;6.83;;;11.10;99.90;;;;;;5041054;28;20446;-71
2023/09/26 01:27:51;;;;;;;8.73;7.10;;;11.20;99.90;;;;;;5039684;28;20484;-71
2023/09/26 01:30:17;;;;;;;10.90;6.43;;;11.10;99.90;;;;;;5040089;28;20514;-72
2023/09/26 01:32:45;;;;;;;9.57;7.13;;;11.10;99.90;;;;;;5040043;28;20464;-72
2023/09/26 01:35:11;;;;;;;8.00;6.90;;;11.10;99.90;;;;;;5036234;28;20797;-71
2023/09/26 01:37:38;;;;;;;8.50;7.17;;;11.10;99.90;;;;;;5038050;28;21012;-71
2023/09/26 01:40:15;;;;;;;10.90;7.60;;;11.10;99.90;;;;;;5035964;28;20453;-71
2023/09/26 01:42:43;;;;;;;9.93;7.13;;;11.10;99.90;;;;;;5034699;28;20469;-71
2023/09/26 01:45:10;;;;;;;15.70;7.47;;;11.10;99.90;;;;;;5039371;28;20457;-71
2023/09/26 01:47:43;;;;;;;11.23;6.70;;;11.10;99.90;;;;;;5042362;28;20452;-71
2023/09/26 01:50:10;;;;;;;10.23;6.70;;;11.10;99.90;;;;;;5039226;28;20497;-71
2023/09/26 01:52:37;;;;;;;11.73;7.10;;;11.00;99.90;;;;;;5041542;28;20517;-71
2023/09/26 01:55:06;;;;;;;10.53;7.10;;;11.00;99.90;;;;;;5040001;28;20751;-71
2023/09/26 01:57:33;;;;;;;11.50;7.80;;;11.00;99.90;;;;;;5041687;28;20499;-71
2023/09/26 02:00:05;;;;;;;9.60;7.60;;;11.00;99.90;;;;;;5035720;28;20463;-71
2023/09/26 02:02:32;;;;;;;9.83;7.70;;;11.00;99.90;;;;;;5040748;28;20831;-71
2023/09/26 02:04:58;;;;;;;10.70;7.63;;;11.00;99.90;;;;;;5039680;28;20461;-71
2023/09/26 02:07:26;;;;;;;11.03;7.10;;;11.00;99.90;;;;;;5038744;28;20463;-71
2023/09/26 02:09:52;;;;;;;12.20;7.33;;;11.00;99.90;;;;;;5038472;28;20488;-71
2023/09/26 02:12:19;;;;;;;7.83;7.00;;;10.90;99.90;;;;;;5038731;28;21056;-71
2023/09/26 02:14:46;;;;;;;9.63;7.40;;;10.90;99.90;;;;;;5037915;28;20461;-71
2023/09/26 02:17:14;;;;;;;9.80;7.80;;;10.90;99.90;;;;;;5034372;28;20449;-71
2023/09/26 02:19:40;;;;;;;12.50;9.30;;;10.90;99.90;;;;;;5041581;28;20443;-71
2023/09/26 02:22:07;;;;;;;12.00;7.60;;;10.80;99.90;;;;;;5041117;28;20982;-71
2023/09/26 02:24:34;;;;;;;9.80;7.73;;;10.80;99.90;;;;;;5040789;28;20537;-71
2023/09/26 02:27:01;;;;;;;10.13;7.57;;;10.80;99.90;;;;;;5042861;28;20937;-71
2023/09/26 02:29:28;;;;;;;13.40;8.17;;;10.70;99.90;;;;;;5041791;28;20955;-71
2023/09/26 02:31:55;;;;;;;8.30;7.33;;;10.70;99.90;;;;;;5043027;28;20547;-71
2023/09/26 02:34:23;;;;;;;11.87;7.60;;;10.70;99.90;;;;;;5038878;28;20492;-71
2023/09/26 02:36:50;;;;;;;8.23;7.20;;;10.70;99.90;;;;;;5044205;28;20513;-71
2023/09/26 02:39:17;;;;;;;11.07;7.80;;;10.70;99.90;;;;;;5041138;28;20464;-71
2023/09/26 02:41:44;;;;;;;15.50;7.70;;;10.70;99.90;;;;;;5040712;28;20495;-71
2023/09/26 02:44:11;;;;;;;10.00;7.87;;;10.70;99.90;;;;;;5037435;28;20540;-71
2023/09/26 02:46:38;;;;;;;11.27;8.30;;;10.70;99.90;;;;;;5041099;28;21011;-71
2023/09/26 02:49:04;;;;;;;14.17;8.20;;;10.60;99.90;;;;;;5039601;28;20481;-72
2023/09/26 02:51:32;;;;;;;8.57;7.47;;;10.60;99.90;;;;;;5042469;28;20492;-71
2023/09/26 02:53:59;;;;;;;12.60;8.40;;;10.60;99.90;;;;;;5042043;28;20459;-71
2023/09/26 02:56:26;;;;;;;11.23;7.60;;;10.60;99.90;;;;;;5041843;28;20453;-71
2023/09/26 02:58:53;;;;;;;10.77;8.23;;;10.60;99.90;;;;;;5041325;28;20505;-71
2023/09/26 03:01:20;;;;;;;11.30;8.40;;;10.50;99.90;;;;;;5040047;28;20978;-71
2023/09/26 03:03:48;;;;;;;10.43;8.20;;;10.50;99.90;;;;;;5040463;28;20885;-71
2023/09/26 03:06:14;;;;;;;10.27;8.30;;;10.50;99.90;;;;;;5040244;28;20454;-71
2023/09/26 03:08:42;;;;;;;9.00;7.53;;;10.40;99.90;;;;;;5042822;28;20448;-71
2023/09/26 03:11:09;;;;;;;10.27;8.87;;;10.40;99.90;;;;;;5036453;28;20497;-70
2023/09/26 03:13:37;;;;;;;9.37;8.37;;;10.40;99.90;;;;;;5039692;28;20587;-71
2023/09/26 03:16:08;;;;;;;13.60;9.57;;;10.40;99.90;;;;;;5040315;28;20462;-71
2023/09/26 03:18:35;;;;;;;15.80;9.70;;;10.30;99.90;;;;;;5039460;28;20480;-71
2023/09/26 03:21:04;;;;;;;12.10;9.23;;;10.30;99.90;;;;;;5038299;28;20497;-71
2023/09/26 03:23:30;;;;;;;12.80;9.60;;;10.30;99.90;;;;;;5040624;28;20584;-71
2023/09/26 03:25:58;;;;;;;11.80;10.10;;;10.30;99.90;;;;;;5041642;28;20456;-71
2023/09/26 03:28:25;;;;;;;14.00;10.30;;;10.30;99.90;;;;;;5040039;28;20507;-70
2023/09/26 03:30:52;;;;;;;12.70;10.33;;;10.30;99.90;;;;;;5041656;28;20488;-71
2023/09/26 03:33:18;;;;;;;12.20;10.57;;;10.30;99.90;;;;;;5035457;28;20469;-71
2023/09/26 03:35:45;;;;;;;15.07;11.20;;;10.30;99.90;;;;;;5037855;28;20453;-71
2023/09/26 03:38:12;;;;;;;16.13;10.50;;;10.30;99.90;;;;;;5034319;28;20785;-71
2023/09/26 03:40:38;;;;;;;14.30;10.47;;;10.30;99.90;;;;;;5037607;28;20457;-71
2023/09/26 03:43:06;;;;;;;12.37;10.27;;;10.20;99.90;;;;;;5037771;28;20472;-71
2023/09/26 03:45:33;;;;;;;12.40;10.23;;;10.20;99.90;;;;;;5040637;28;20449;-70
2023/09/26 03:48:00;;;;;;;13.63;10.60;;;10.20;99.90;;;;;;5037912;28;20471;-71
2023/09/26 03:50:26;;;;;;;15.27;10.30;;;10.20;99.90;;;;;;5039084;28;20539;-71
2023/09/26 03:52:53;;;;;;;13.50;10.10;;;10.10;99.90;;;;;;5041033;28;20538;-71
2023/09/26 03:55:19;;;;;;;17.27;10.73;;;10.10;99.90;;;;;;5034882;28;20504;-70
2023/09/26 03:57:46;;;;;;;12.80;10.50;;;10.10;99.90;;;;;;5041832;28;20475;-70
2023/09/26 04:00:18;;;;;;;13.10;10.40;;;10.10;99.90;;;;;;5033500;28;20445;-70
2023/09/26 04:02:45;;;;;;;13.00;10.63;;;10.00;99.90;;;;;;5038328;28;20503;-70
2023/09/26 04:05:12;;;;;;;25.50;12.13;;;10.00;99.90;;;;;;5032550;28;20456;-71
2023/09/26 04:07:40;;;;;;;13.13;10.47;;;10.00;99.90;;;;;;5039144;28;20951;-70
2023/09/26 04:10:08;;;;;;;15.40;11.40;;;10.00;99.90;;;;;;5038086;28;20493;-70
2023/09/26 04:12:34;;;;;;;16.57;11.77;;;10.00;99.90;;;;;;5038568;28;21028;-70
2023/09/26 04:15:01;;;;;;;13.97;10.30;;;9.90;99.90;;;;;;5038686;28;20460;-70
2023/09/26 04:17:30;;;;;;;13.80;10.83;;;9.90;99.90;;;;;;5036716;28;20460;-70
2023/09/26 04:19:57;;;;;;;11.63;10.43;;;9.90;99.90;;;;;;5037509;28;20942;-71
2023/09/26 04:22:24;;;;;;;15.13;10.13;;;9.90;99.90;;;;;;5037343;28;20469;-71
2023/09/26 04:24:50;;;;;;;19.90;11.60;;;9.90;99.90;;;;;;5040195;28;20452;-70
2023/09/26 04:27:17;;;;;;;16.83;10.60;;;9.80;99.90;;;;;;5037442;28;20457;-70
2023/09/26 04:29:44;;;;;;;18.57;10.67;;;9.80;99.90;;;;;;5037648;28;20955;-70
2023/09/26 04:32:11;;;;;;;12.47;10.00;;;9.80;99.90;;;;;;5036038;28;20871;-70
2023/09/26 04:34:39;;;;;;;13.07;10.37;;;9.80;99.90;;;;;;5035676;28;20456;-70
2023/09/26 04:37:07;;;;;;;13.27;10.00;;;9.80;99.90;;;;;;5037884;28;20446;-70
2023/09/26 04:39:34;;;;;;;12.70;9.43;;;9.80;99.90;;;;;;5037653;28;20480;-71
2023/09/26 04:42:00;;;;;;;18.30;10.03;;;9.80;99.90;;;;;;5037900;28;20465;-70
2023/09/26 04:44:27;;;;;;;16.17;11.23;;;9.70;99.90;;;;;;5033218;28;20503;-70
2023/09/26 04:46:54;;;;;;;13.50;10.17;;;9.70;99.90;;;;;;5028431;28;20445;-70
2023/09/26 04:49:21;;;;;;;12.83;10.13;;;9.70;99.90;;;;;;5036488;28;20500;-71
2023/09/26 04:51:49;;;;;;;14.57;10.23;;;9.70;99.90;;;;;;5038623;28;20489;-71
2023/09/26 04:54:15;;;;;;;15.70;10.17;;;9.80;99.90;;;;;;5036215;28;20985;-71
2023/09/26 04:56:42;;;;;;;13.87;10.03;;;9.80;99.90;;;;;;5038060;28;20998;-71
2023/09/26 04:59:08;;;;;;;13.00;10.73;;;9.70;99.90;;;;;;5035774;28;20588;-70
2023/09/26 05:01:36;;;;;;;11.83;10.30;;;9.80;99.90;;;;;;5034590;28;20454;-71
2023/09/26 05:04:03;;;;;;;11.77;9.90;;;9.80;99.90;;;;;;5037058;28;20492;-71
2023/09/26 05:06:30;;;;;;;13.47;10.03;;;9.70;99.90;;;;;;5035954;28;20528;-71
2023/09/26 05:08:58;;;;;;;13.73;9.97;;;9.80;99.90;;;;;;5035354;28;20468;-71
2023/09/26 05:11:26;;;;;;;12.23;10.40;;;9.80;99.90;;;;;;5034745;28;20535;-70
2023/09/26 05:13:52;;;;;;;10.27;9.23;;;9.80;99.90;;;;;;5037949;28;20520;-70
2023/09/26 05:16:19;;;;;;;12.77;9.33;;;9.70;99.90;;;;;;5035253;28;20970;-70
2023/09/26 05:18:46;;;;;;;15.80;10.17;;;9.80;99.90;;;;;;5037389;28;20458;-70
2023/09/26 05:21:12;;;;;;;20.33;11.27;;;9.90;99.90;;;;;;5029226;28;20458;-70
2023/09/26 05:23:39;;;;;;;13.97;10.23;;;9.80;99.90;;;;;;5033968;28;20477;-71
2023/09/26 05:26:09;;;;;;;11.33;9.20;;;9.70;99.90;;;;;;5034835;28;20792;-69
2023/09/26 05:28:36;;;;;;;10.10;9.00;;;9.80;99.90;;;;;;5035696;28;20446;-69
2023/09/26 05:31:03;;;;;;;12.90;9.10;;;9.80;99.90;;;;;;5035826;28;20514;-69
2023/09/26 05:33:29;;;;;;;11.07;8.80;;;9.80;99.90;;;;;;5032637;28;20465;-69
2023/09/26 05:35:56;;;;;;;17.53;10.27;;;9.80;99.90;;;;;;5030639;28;20445;-69
2023/09/26 05:38:24;;;;;;;11.50;8.80;;;9.90;99.90;;;;;;5034687;28;20445;-69
2023/09/26 05:40:51;;;;;;;12.77;10.17;;;9.90;99.90;;;;;;5035958;28;20446;-69
2023/09/26 05:43:19;;;;;;;11.93;9.83;;;9.90;99.90;;;;;;5032807;28;20469;-69
2023/09/26 05:45:49;;;;;;;13.17;9.23;;;9.90;99.90;;;;;;5036639;28;20442;-69
2023/09/26 05:48:15;;;;;;;12.43;9.73;;;10.00;99.90;;;;;;5028268;28;20547;-69
2023/09/26 05:50:42;;;;;;;10.37;8.90;;;10.00;99.90;;;;;;5034618;28;20485;-70
2023/09/26 05:53:09;;;;;;;20.50;8.80;;;10.00;99.90;;;;;;5033708;28;20465;-69
2023/09/26 05:55:35;;;;;;;14.60;9.33;;;10.10;99.90;;;;;;5034526;28;20449;-69
2023/09/26 05:58:02;;;;;;;11.70;8.97;;;10.10;99.90;;;;;;5039307;28;20456;-69
2023/09/26 06:00:30;;;;;;;14.17;9.13;;;10.20;99.90;;;;;;5036090;28;20458;-69
2023/09/26 06:02:56;;;;;;;22.30;9.53;;;10.40;99.90;;;;;;5039138;28;20522;-69
2023/09/26 06:05:23;;;;;;;10.33;8.03;;;10.80;99.90;;;;;;5036766;28;20457;-71
2023/09/26 06:07:51;;;;;;;9.20;7.97;;;11.30;99.90;;;;;;5039276;28;20453;-69
2023/09/26 06:10:19;;;;;;;11.93;7.27;;;11.90;99.90;;;;;;5036275;28;20456;-70
2023/09/26 06:12:45;;;;;;;7.20;6.50;;;12.40;99.90;;;;;;5038690;28;20501;-70
2023/09/26 06:15:12;;;;;;;13.53;7.70;;;12.90;99.90;;;;;;5030866;28;20476;-70
2023/09/26 06:17:41;;;;;;;8.27;7.03;;;13.30;99.90;;;;;;5035957;28;20481;-69
2023/09/26 06:20:09;;;;;;;8.97;6.80;;;13.80;99.90;;;;;;5037503;28;20480;-70
2023/09/26 06:22:36;;;;;;;14.97;6.40;;;14.20;99.90;;;;;;5036865;28;21038;-70
2023/09/26 06:25:04;;;;;;;12.47;7.10;;;14.60;99.90;;;;;;5038329;28;20452;-70
2023/09/26 06:27:34;;;;;;;7.80;6.43;;;15.00;99.90;;;;;;5037149;28;20453;-70
2023/09/26 06:30:01;;;;;;;8.03;6.60;;;15.40;99.90;;;;;;5036388;28;20448;-70
2023/09/26 06:32:27;;;;;;;14.60;6.63;;;15.80;99.90;;;;;;5035373;28;20486;-70
2023/09/26 06:34:59;;;;;;;11.50;6.70;;;16.10;99.90;;;;;;5032647;28;21213;-71
2023/09/26 06:37:26;;;;;;;11.03;6.13;;;16.50;99.90;;;;;;5035033;28;21044;-70
2023/09/26 06:39:54;;;;;;;7.65;5.93;;;16.70;99.90;;;;;;5036902;28;20491;-70
2023/09/26 06:42:21;;;;;;;8.87;6.60;;;16.90;99.90;;;;;;5035758;28;20223;-70
2023/09/26 06:44:49;;;;;;;9.10;6.60;;;17.10;99.90;;;;;;5036127;28;20445;-70
2023/09/26 06:47:17;;;;;;;15.40;6.30;;;17.50;99.90;;;;;;5036054;28;20973;-70
2023/09/26 06:49:46;;;;;;;7.93;6.00;;;17.60;99.90;;;;;;5034777;28;20442;-71
2023/09/26 06:52:15;;;;;;;7.33;5.43;;;17.70;99.90;;;;;;5029342;28;20463;-71
2023/09/26 06:54:42;;;;;;;6.33;5.73;;;17.90;99.90;;;;;;5036456;28;20490;-71
2023/09/26 06:57:09;;;;;;;7.43;6.53;;;18.10;99.90;;;;;;5035632;28;20432;-71
2023/09/26 06:59:36;;;;;;;8.83;6.17;;;18.30;99.90;;;;;;5035629;28;20500;-70
2023/09/26 07:02:03;;;;;;;6.83;5.87;;;18.60;99.90;;;;;;5033814;28;20439;-70
2023/09/26 07:04:30;;;;;;;13.47;5.97;;;18.80;99.90;;;;;;5035752;28;20449;-71
2023/09/26 07:06:56;;;;;;;11.10;6.00;;;19.00;99.90;;;;;;5035857;28;20428;-71
2023/09/26 07:09:26;;;;;;;9.33;5.70;;;19.10;99.90;;;;;;5035478;28;21000;-71
2023/09/26 07:11:53;;;;;;;7.30;6.00;;;19.20;99.90;;;;;;5035329;28;20891;-70
2023/09/26 07:14:20;;;;;;;6.83;4.87;;;19.30;99.90;;;;;;5034985;28;20524;-71
2023/09/26 07:16:47;;;;;;;6.40;5.43;;;19.50;99.90;;;;;;5035739;28;20536;-70
2023/09/26 07:19:14;;;;;;;11.90;5.27;;;19.50;99.90;;;;;;5034517;28;20549;-70
2023/09/26 07:21:40;;;;;;;9.70;5.20;;;19.30;99.90;;;;;;5035073;28;20449;-70
2023/09/26 07:24:08;;;;;;;6.47;5.80;;;19.20;99.90;;;;;;5035412;28;21013;-71
2023/09/26 07:26:36;;;;;;;5.90;5.23;;;19.10;99.90;;;;;;5034089;28;20549;-70
2023/09/26 07:29:03;;;;;;;7.83;4.70;;;19.00;99.90;;;;;;5035130;28;20456;-71
2023/09/26 07:31:31;;;;;;;6.03;5.03;;;18.80;99.90;;;;;;5029078;28;20468;-71
2023/09/26 07:33:57;;;;;;;5.60;4.83;;;18.90;99.90;;;;;;5034464;28;20951;-71
2023/09/26 07:36:24;;;;;;;8.33;5.87;;;18.80;99.90;;;;;;5034147;28;20515;-71
2023/09/26 07:38:50;;;;;;;8.80;5.30;;;18.70;99.90;;;;;;5034732;28;20470;-71
2023/09/26 07:41:17;;;;;;;7.37;4.80;;;18.80;99.90;;;;;;5034108;28;20416;-71
2023/09/26 07:43:45;;;;;;;7.07;6.37;;;18.50;99.90;;;;;;5030725;28;21006;-70
2023/09/26 07:46:13;;;;;;;7.87;5.37;;;18.50;99.90;;;;;;5034445;28;20469;-70
2023/09/26 07:48:39;;;;;;;9.90;5.90;;;18.50;99.90;;;;;;5034495;28;20500;-70
2023/09/26 07:51:08;;;;;;;6.43;5.67;;;18.60;99.90;;;;;;5032710;28;20462;-70
2023/09/26 07:53:35;;;;;;;5.80;5.10;;;18.70;99.90;;;;;;5034014;28;20913;-70
2023/09/26 07:56:02;;;;;;;8.27;5.27;;;18.80;99.90;;;;;;5033352;28;20854;-72
2023/09/26 07:58:29;;;;;;;5.60;5.10;;;19.00;99.90;;;;;;5033171;28;20481;-72
2023/09/26 08:01:00;;;;;;;7.47;4.90;;;19.20;99.90;;;;;;5033230;28;20480;-71
2023/09/26 08:03:29;;;;;;;6.10;4.70;;;19.40;99.90;;;;;;5038628;28;20915;-71
2023/09/26 08:06:00;;;;;;;6.23;5.27;;;19.40;99.90;;;;;;5038218;28;20456;-71
2023/09/26 08:08:28;;;;;;;5.57;4.80;;;19.60;99.90;;;;;;5038553;28;20449;-73
2023/09/26 08:10:55;;;;;;;7.93;5.10;;;19.70;99.90;;;;;;5037869;28;20991;-72
2023/09/26 08:13:22;;;;;;;5.20;4.63;;;19.90;99.90;;;;;;5040767;28;20534;-72
2023/09/26 08:15:48;;;;;;;9.10;4.33;;;20.10;99.90;;;;;;5030470;28;20884;-72
2023/09/26 08:18:16;;;;;;;5.80;4.93;;;20.40;99.90;;;;;;5026462;28;20445;-72
2023/09/26 08:20:43;;;;;;;7.80;5.27;;;20.40;99.90;;;;;;5036896;28;20468;-72
2023/09/26 08:23:10;;;;;;;7.00;4.80;;;20.60;99.90;;;;;;5037704;28;20465;-72
2023/09/26 08:25:37;;;;;;;6.70;4.13;;;20.80;99.90;;;;;;5038852;28;20462;-72
2023/09/26 08:28:04;;;;;;;10.33;5.40;;;20.80;99.90;;;;;;5039391;28;20869;-72
2023/09/26 08:30:33;;;;;;;11.63;5.50;;;20.90;99.90;;;;;;5038773;28;20460;-72
2023/09/26 08:32:59;;;;;;;8.43;5.23;;;21.10;99.90;;;;;;5037523;28;20563;-72
2023/09/26 08:35:28;;;;;;;5.00;4.50;;;21.20;99.90;;;;;;5037883;28;20448;-72
2023/09/26 08:37:55;;;;;;;5.30;4.80;;;21.10;99.90;;;;;;5037950;28;20489;-72
2023/09/26 08:40:25;;;;;;;5.17;4.60;;;21.10;99.90;;;;;;5037313;28;20954;-73
2023/09/26 08:42:54;;;;;;;9.53;4.93;;;20.80;99.90;;;;;;5038068;28;20544;-73
2023/09/26 08:45:21;;;;;;;4.87;4.47;;;21.00;99.90;;;;;;5035289;28;20453;-73
2023/09/26 08:47:49;;;;;;;4.70;4.30;;;21.30;99.90;;;;;;5036632;28;20461;-73
2023/09/26 08:50:16;;;;;;;7.37;5.47;;;21.50;99.90;;;;;;5037037;28;20476;-73
2023/09/26 08:52:44;;;;;;;5.23;4.73;;;21.40;99.90;;;;;;5037437;28;20542;-73
2023/09/26 08:55:11;;;;;;;6.43;4.40;;;21.40;99.90;;;;;;5037241;28;20457;-73
2023/09/26 08:57:39;;;;;;;6.47;5.07;;;21.30;99.90;;;;;;5037610;28;20448;-73
2023/09/26 09:00:08;;;;;;;5.47;4.13;;;21.20;99.90;;;;;;5038119;28;20512;-73
2023/09/26 09:02:35;;;;;;;5.73;5.13;;;21.20;99.90;;;;;;5037744;28;20468;-73
2023/09/26 09:05:03;;;;;;;5.83;5.27;;;20.90;99.90;;;;;;5037195;28;20516;-73
2023/09/26 09:07:30;;;;;;;8.50;4.40;;;20.90;99.90;;;;;;5036972;28;20461;-73
2023/09/26 09:10:06;;;;;;;4.23;3.77;;;21.30;99.90;;;;;;5037923;28;20490;-73
2023/09/26 09:12:34;;;;;;;4.77;4.03;;;21.50;99.90;;;;;;5037451;28;20493;-73
2023/09/26 09:15:01;;;;;;;9.53;4.40;;;21.20;99.90;;;;;;5037343;28;20454;-73
2023/09/26 09:17:40;;;;;;;4.60;4.13;;;21.40;99.90;;;;;;5037124;28;20445;-73
2023/09/26 09:20:08;;;;;;;7.40;4.00;;;21.60;99.90;;;;;;5035887;28;20540;-73
2023/09/26 09:22:35;;;;;;;4.50;4.10;;;21.70;99.90;;;;;;5036475;28;21076;-73
2023/09/26 09:25:03;;;;;;;6.33;4.23;;;21.80;99.90;;;;;;5037102;28;21035;-73
2023/09/26 09:27:31;;;;;;;5.60;4.00;;;21.50;99.90;;;;;;5037682;28;20450;-73
2023/09/26 09:30:03;;;;;;;5.73;3.87;;;21.20;99.90;;;;;;5037042;28;20460;-73
2023/09/26 09:32:30;;;;;;;6.07;4.47;;;21.60;99.90;;;;;;5037411;28;20497;-73
2023/09/26 09:34:57;;;;;;;6.90;4.40;;;21.80;99.90;;;;;;5035997;28;20937;-73
2023/09/26 09:37:24;;;;;;;6.93;3.47;;;22.10;99.90;;;;;;5036472;28;20459;-72
2023/09/26 09:39:51;;;;;;;4.90;4.40;;;22.30;99.90;;;;;;5037284;28;20526;-73
2023/09/26 09:42:19;;;;;;;5.57;4.13;;;22.60;99.90;;;;;;5036577;28;20478;-73
2023/09/26 09:44:46;;;;;;;5.57;4.60;;;22.50;99.90;;;;;;5036957;28;20460;-73
2023/09/26 09:47:18;;;;;;;4.90;4.33;;;22.50;99.90;;;;;;5035829;28;20494;-75
2023/09/26 09:49:47;;;;;;;5.60;4.60;;;22.70;99.90;;;;;;5036745;28;20584;-73
2023/09/26 09:52:17;;;;;;;5.47;4.83;;;22.70;99.90;;;;;;5035657;28;20490;-73
2023/09/26 09:54:45;;;;;;;7.20;5.53;;;22.50;99.90;;;;;;5035529;28;20509;-72
2023/09/26 09:57:15;;;;;;;6.47;4.67;;;22.50;99.90;;;;;;5035622;28;20547;-73
2023/09/26 09:59:45;;;;;;;6.53;5.00;;;22.90;99.90;;;;;;5034871;28;20460;-72
2023/09/26 10:02:15;;;;;;;6.23;4.80;;;23.10;99.90;;;;;;5036034;28;20511;-72
2023/09/26 10:04:43;;;;;;;6.00;5.40;;;23.40;99.90;;;;;;5036490;28;20463;-74
2023/09/26 10:07:12;;;;;;;7.87;4.50;;;23.50;99.90;;;;;;5035939;28;20527;-74
2023/09/26 10:09:40;;;;;;;5.20;4.70;;;23.60;99.90;;;;;;5036150;28;20521;-72
2023/09/26 10:12:07;;;;;;;6.20;4.50;;;23.70;99.90;;;;;;5036043;28;20497;-73
2023/09/26 10:14:34;;;;;;;4.10;3.80;;;23.50;99.90;;;;;;5036856;28;20877;-73
2023/09/26 10:17:04;;;;;;;7.40;4.03;;;23.20;99.90;;;;;;5037138;28;20468;-73
2023/09/26 10:19:32;;;;;;;5.33;4.10;;;23.40;99.90;;;;;;5035608;28;20488;-73
2023/09/26 10:22:14;;;;;;;4.87;4.37;;;23.20;99.90;;;;;;5035384;28;20989;-73
2023/09/26 10:24:48;;;;;;;5.27;4.10;;;22.80;99.90;;;;;;5036073;28;20452;-73
2023/09/26 10:27:23;;;;;;;6.80;3.43;;;22.60;99.90;;;;;;5037400;28;21514;-73
2023/09/26 10:29:53;;;;;;;3.70;3.40;;;23.00;99.90;;;;;;5036218;28;20542;-71
2023/09/26 10:32:32;;;;;;;5.70;3.80;;;23.10;99.90;;;;;;5035681;28;20489;-70
2023/09/26 10:34:59;;;;;;;5.50;3.97;;;23.40;99.90;;;;;;5036318;28;20526;-70
2023/09/26 10:37:27;;;;;;;4.30;3.90;;;23.70;99.90;;;;;;5035750;28;20453;-69
2023/09/26 10:39:54;;;;;;;4.20;3.80;;;23.90;99.90;;;;;;5036392;28;20479;-70
2023/09/26 10:42:24;;;;;;;5.00;4.10;;;24.10;99.90;;;;;;5037680;28;20464;-70
2023/09/26 10:44:51;;;;;;;10.00;3.87;;;24.00;99.90;;;;;;5039536;28;21037;-69
2023/09/26 10:47:19;;;;;;;6.30;3.60;;;24.10;99.90;;;;;;5039910;28;20502;-70
2023/09/26 10:49:47;;;;;;;6.07;3.40;;;24.50;99.90;;;;;;5040135;28;20500;-70
2023/09/26 10:52:15;;;;;;;8.23;3.23;;;24.80;99.90;;;;;;5039615;28;21036;-70
2023/09/26 10:54:42;;;;;;;6.03;3.40;;;24.70;99.90;;;;;;5039243;28;20962;-69
2023/09/26 10:57:15;;;;;;;13.10;3.57;;;24.40;99.90;;;;;;5038001;28;20464;-70
2023/09/26 10:59:42;;;;;;;6.23;3.87;;;24.10;99.90;;;;;;5039086;28;20872;-69
2023/09/26 11:02:11;;;;;;;6.00;3.40;;;24.20;99.90;;;;;;5037763;28;20473;-70
2023/09/26 11:04:37;;;;;;;7.30;3.80;;;24.30;99.90;;;;;;5039444;28;20461;-69
2023/09/26 11:07:05;;;;;;;5.00;3.53;;;24.60;99.90;;;;;;5039255;28;20456;-69
2023/09/26 11:09:34;;;;;;;4.10;3.70;;;24.90;99.90;;;;;;5039322;28;20449;-69
2023/09/26 11:12:01;;;;;;;5.57;3.30;;;25.10;99.90;;;;;;5037821;28;20901;-69
2023/09/26 11:14:29;;;;;;;3.60;3.30;;;25.10;99.90;;;;;;5038817;28;20495;-69
2023/09/26 11:16:56;;;;;;;7.93;3.30;;;25.00;99.90;;;;;;5038533;28;20480;-69
2023/09/26 11:19:24;;;;;;;3.30;3.00;;;24.80;99.90;;;;;;5039259;28;20880;-70
2023/09/26 11:21:50;;;;;;;4.20;3.60;;;25.10;99.90;;;;;;5037407;28;20567;-70
2023/09/26 11:24:23;;;;;;;3.13;2.90;;;25.40;99.90;;;;;;5039361;28;20824;-70
2023/09/26 11:26:52;;;;;;;4.73;3.67;;;25.10;99.90;;;;;;5039587;28;20449;-70
2023/09/26 11:29:20;;;;;;;3.93;3.53;;;24.80;99.90;;;;;;5039212;28;20472;-69
2023/09/26 11:31:47;;;;;;;4.27;3.20;;;24.60;99.90;;;;;;5039595;28;21253;-69
2023/09/26 11:34:16;;;;;;;3.40;3.20;;;24.60;99.90;;;;;;5039661;28;21246;-69
2023/09/26 11:36:44;;;;;;;3.53;3.23;;;24.50;99.90;;;;;;5039508;28;20448;-70
2023/09/26 11:39:15;;;;;;;4.23;3.00;;;24.40;99.90;;;;;;5037617;28;20452;-70
2023/09/26 11:41:43;;;;;;;2.97;2.77;;;24.60;99.90;;;;;;5038786;28;20456;-70
2023/09/26 11:44:11;;;;;;;3.80;3.40;;;24.50;99.90;;;;;;5037863;28;20507;-71
2023/09/26 11:46:45;;;;;;;3.40;3.03;;;24.30;99.90;;;;;;5038916;28;20453;-70
2023/09/26 11:49:12;;;;;;;3.83;3.20;;;24.20;99.90;;;;;;5039443;28;20475;-70
2023/09/26 11:51:39;;;;;;;3.50;3.20;;;24.20;99.90;;;;;;5038421;28;20623;-70
2023/09/26 11:54:06;;;;;;;4.30;3.27;;;24.10;99.90;;;;;;5037034;28;20902;-71
2023/09/26 11:56:33;;;;;;;2.83;2.63;;;24.10;99.90;;;;;;5039084;28;20445;-70
2023/09/26 11:59:04;;;;;;;2.80;2.50;;;24.00;99.90;;;;;;5038035;28;20465;-69
2023/09/26 12:01:31;;;;;;;3.43;3.07;;;24.00;99.90;;;;;;5038492;28;20465;-68
2023/09/26 12:04:03;;;;;;;3.60;3.30;;;24.00;99.90;;;;;;5038179;28;20522;-70
2023/09/26 12:06:29;;;;;;;6.93;3.40;;;23.90;99.90;;;;;;5037421;28;20460;-70
2023/09/26 12:08:56;;;;;;;5.27;3.27;;;24.00;99.90;;;;;;5038035;28;20835;-70
2023/09/26 12:11:22;;;;;;;4.10;2.90;;;24.20;99.90;;;;;;5038187;28;20460;-69
2023/09/26 12:13:49;;;;;;;4.20;3.77;;;24.40;99.90;;;;;;5038349;28;20500;-71
2023/09/26 12:16:17;;;;;;;5.10;2.90;;;24.40;99.90;;;;;;5038635;28;20449;-70
2023/09/26 12:18:44;;;;;;;3.83;2.93;;;24.40;99.90;;;;;;5038007;28;20453;-70
2023/09/26 12:21:10;;;;;;;4.43;3.47;;;24.50;99.90;;;;;;5037910;28;20514;-70
2023/09/26 12:23:37;;;;;;;3.60;2.70;;;24.50;99.90;;;;;;5038152;28;20546;-71
2023/09/26 12:26:05;;;;;;;3.27;2.97;;;24.40;99.90;;;;;;5038421;28;20516;-69
2023/09/26 12:28:32;;;;;;;3.77;3.10;;;24.20;99.90;;;;;;5038170;28;20465;-70
2023/09/26 12:30:59;;;;;;;7.00;2.97;;;24.20;99.90;;;;;;5037902;28;20878;-70
2023/09/26 12:33:27;;;;;;;3.30;3.00;;;24.40;99.90;;;;;;5038264;28;20488;-69
2023/09/26 12:35:53;;;;;;;3.47;3.17;;;24.50;99.90;;;;;;5038337;28;20442;-70
2023/09/26 12:38:20;;;;;;;3.03;2.80;;;24.70;99.90;;;;;;5038370;28;20469;-70
2023/09/26 12:40:47;;;;;;;4.60;3.07;;;24.80;99.90;;;;;;5038430;28;20518;-69
2023/09/26 12:43:13;;;;;;;6.07;2.90;;;24.60;99.90;;;;;;5038006;28;20467;-69
2023/09/26 12:45:40;;;;;;;5.20;3.40;;;24.50;99.90;;;;;;5037429;28;20796;-70